createdAt,value
2023-09-08T00:02:29.852Z,20.01
2023-09-08T00:04:56.609Z,19.95
2023-09-08T00:07:23.380Z,18.03
2023-09-08T00:09:50.049Z,18.84
2023-09-08T00:12:16.895Z,18.12
2023-09-08T00:14:43.568Z,17.67
2023-09-08T00:17:10.190Z,18.78
2023-09-08T00:19:37.024Z,18.20
2023-09-08T00:22:07.029Z,18.29
2023-09-08T00:24:34.267Z,18.85
2023-09-08T00:27:00.858Z,18.88
2023-09-08T00:29:27.358Z,18.61
2023-09-08T00:31:54.734Z,17.92
2023-09-08T00:34:21.229Z,17.74
2023-09-08T00:36:47.674Z,18.11
2023-09-08T00:39:14.253Z,18.63
2023-09-08T00:41:40.747Z,17.73
2023-09-08T00:44:09.868Z,19.10
2023-09-08T00:46:36.686Z,19.50
2023-09-08T00:49:03.835Z,18.47
2023-09-08T00:51:30.444Z,18.85
2023-09-08T00:53:57.103Z,18.72
2023-09-08T00:56:24.331Z,18.42
2023-09-08T00:58:50.910Z,19.29
2023-09-08T01:01:18.629Z,18.64
2023-09-08T01:03:45.367Z,18.23
2023-09-08T01:06:13.363Z,17.16
2023-09-08T01:08:40.528Z,16.65
2023-09-08T01:11:08.160Z,18.45
2023-09-08T01:13:34.798Z,18.37
2023-09-08T01:16:02.534Z,18.87
2023-09-08T01:18:29.221Z,17.89
2023-09-08T01:21:54.695Z,18.15
2023-09-08T01:24:58.970Z,18.89
2023-09-08T01:27:26.694Z,18.11
2023-09-08T01:29:54.886Z,16.88
2023-09-08T01:32:21.804Z,16.78
2023-09-08T01:34:48.325Z,17.34
2023-09-08T01:37:14.896Z,17.51
2023-09-08T01:39:41.340Z,17.10
2023-09-08T01:42:07.902Z,17.29
2023-09-08T01:44:34.526Z,17.67
2023-09-08T01:47:01.137Z,17.32
2023-09-08T01:49:27.667Z,17.73
2023-09-08T01:51:54.461Z,16.32
2023-09-08T01:54:21.016Z,17.03
2023-09-08T01:56:47.576Z,16.83
2023-09-08T01:59:14.125Z,16.63
2023-09-08T02:01:41.282Z,18.20
2023-09-08T02:04:07.928Z,17.47
2023-09-08T02:06:34.397Z,17.06
2023-09-08T02:09:00.864Z,17.44
2023-09-08T02:11:27.384Z,17.59
2023-09-08T02:13:55.372Z,17.35
2023-09-08T02:16:23.052Z,17.49
2023-09-08T02:18:51.512Z,16.79
2023-09-08T02:21:18.049Z,17.22
2023-09-08T02:23:44.658Z,17.59
2023-09-08T02:26:11.974Z,18.30
2023-09-08T02:28:39.011Z,17.49
2023-09-08T02:31:05.725Z,17.53
2023-09-08T02:33:32.451Z,17.29
2023-09-08T02:36:06.735Z,18.67
2023-09-08T02:38:34.554Z,17.56
2023-09-08T02:41:01.437Z,16.95
2023-09-08T02:43:28.416Z,17.28
2023-09-08T02:45:55.571Z,16.16
2023-09-08T02:48:22.294Z,16.58
2023-09-08T02:50:48.952Z,16.32
2023-09-08T02:53:15.468Z,16.82
2023-09-08T02:55:42.023Z,17.74
2023-09-08T02:58:08.524Z,17.25
2023-09-08T03:00:35.052Z,17.39
2023-09-08T03:03:02.126Z,17.67
2023-09-08T03:05:29.249Z,16.80
2023-09-08T03:07:55.834Z,16.35
2023-09-08T03:10:22.395Z,17.48
2023-09-08T03:12:48.967Z,16.40
2023-09-08T03:15:15.665Z,16.17
2023-09-08T03:17:42.190Z,16.89
2023-09-08T03:20:11.112Z,15.74
2023-09-08T03:22:37.704Z,15.97
2023-09-08T03:25:04.788Z,17.32
2023-09-08T03:27:31.290Z,16.70
2023-09-08T03:29:57.841Z,17.46
2023-09-08T03:32:26.437Z,17.51
2023-09-08T03:34:53.210Z,17.17
2023-09-08T03:37:19.738Z,17.80
2023-09-08T03:39:46.288Z,17.76
2023-09-08T03:42:12.759Z,17.56
2023-09-08T03:44:39.249Z,18.33
2023-09-08T03:47:06.273Z,18.19
2023-09-08T03:49:32.825Z,17.01
2023-09-08T03:51:59.466Z,16.81
2023-09-08T03:54:25.986Z,17.34
2023-09-08T03:56:52.518Z,16.90
2023-09-08T03:59:19.074Z,16.30
2023-09-08T04:01:45.526Z,17.36
2023-09-08T04:04:12.150Z,17.60
2023-09-08T04:06:38.766Z,17.57
2023-09-08T04:09:05.357Z,17.11
2023-09-08T04:11:32.039Z,16.58
2023-09-08T04:13:58.544Z,16.24
2023-09-08T04:16:25.083Z,15.41
2023-09-08T04:18:53.566Z,16.41
2023-09-08T04:21:21.663Z,17.38
2023-09-08T04:23:48.241Z,16.15
2023-09-08T04:26:14.808Z,16.38
2023-09-08T04:28:41.318Z,15.78
2023-09-08T04:31:07.860Z,15.86
2023-09-08T04:33:34.715Z,15.56
2023-09-08T04:36:01.603Z,17.10
2023-09-08T04:38:28.134Z,17.57
2023-09-08T04:40:54.660Z,17.11
2023-09-08T04:43:21.294Z,17.22
2023-09-08T04:45:47.921Z,17.85
2023-09-08T04:48:14.519Z,17.02
2023-09-08T04:50:41.018Z,16.39
2023-09-08T04:53:08.432Z,15.70
2023-09-08T04:55:34.912Z,16.89
2023-09-08T04:58:01.394Z,16.01
2023-09-08T05:00:27.893Z,15.55
2023-09-08T05:02:54.528Z,15.70
2023-09-08T05:05:21.125Z,16.60
2023-09-08T05:07:49.058Z,16.73
2023-09-08T05:10:15.625Z,17.01
2023-09-08T05:12:42.093Z,17.04
2023-09-08T05:15:15.780Z,16.98
2023-09-08T05:17:42.511Z,16.39
2023-09-08T05:20:10.106Z,17.59
2023-09-08T05:22:37.598Z,17.08
2023-09-08T05:25:04.906Z,16.68
2023-09-08T05:27:32.707Z,16.82
2023-09-08T05:30:00.016Z,17.01
2023-09-08T05:32:26.621Z,17.18
2023-09-08T05:34:53.265Z,16.13
2023-09-08T05:37:19.738Z,16.49
2023-09-08T05:39:46.238Z,17.46
2023-09-08T05:42:12.820Z,16.31
2023-09-08T05:44:40.599Z,17.65
2023-09-08T05:47:07.192Z,16.31
2023-09-08T05:49:36.277Z,17.23
2023-09-08T05:52:04.298Z,17.31
2023-09-08T05:54:31.591Z,17.15
2023-09-08T05:56:58.180Z,17.34
2023-09-08T05:59:24.760Z,17.11
2023-09-08T06:01:51.293Z,17.99
2023-09-08T06:04:17.920Z,18.10
2023-09-08T06:06:44.476Z,18.44
2023-09-08T06:09:13.219Z,18.69
2023-09-08T06:11:39.787Z,18.40
2023-09-08T06:14:06.360Z,19.29
2023-09-08T06:16:32.975Z,19.38
2023-09-08T06:19:09.058Z,18.57
2023-09-08T06:21:35.655Z,18.64
2023-09-08T06:24:02.229Z,19.52
2023-09-08T06:26:28.969Z,20.22
2023-09-08T06:28:55.590Z,19.80
2023-09-08T06:31:22.129Z,19.38
2023-09-08T06:33:50.936Z,19.33
2023-09-08T06:36:17.585Z,20.03
2023-09-08T06:38:44.096Z,19.89
2023-09-08T06:41:12.509Z,19.30
2023-09-08T06:43:39.757Z,19.34
2023-09-08T06:46:06.761Z,19.66
2023-09-08T06:48:33.661Z,19.26
2023-09-08T06:51:00.490Z,20.54
2023-09-08T06:53:27.223Z,19.73
2023-09-08T06:55:54.023Z,19.27
2023-09-08T06:58:21.094Z,21.47
2023-09-08T07:00:47.806Z,22.01
2023-09-08T07:03:14.633Z,21.52
2023-09-08T07:05:41.546Z,20.60
2023-09-08T07:08:08.317Z,20.24
2023-09-08T07:10:35.161Z,21.19
2023-09-08T07:13:01.726Z,21.84
2023-09-08T07:15:28.379Z,22.84
2023-09-08T07:17:55.048Z,23.25
2023-09-08T07:20:21.802Z,23.86
2023-09-08T07:22:48.476Z,23.66
2023-09-08T07:25:15.174Z,23.16
2023-09-08T07:27:41.867Z,24.03
2023-09-08T07:30:09.012Z,23.42
2023-09-08T07:32:35.635Z,22.76
2023-09-08T07:35:02.260Z,24.10
2023-09-08T07:37:28.931Z,22.08
2023-09-08T07:39:56.233Z,22.91
2023-09-08T07:42:22.832Z,22.99
2023-09-08T07:44:49.360Z,22.89
2023-09-08T07:47:15.823Z,21.89
2023-09-08T07:49:48.715Z,21.85
2023-09-08T07:52:15.397Z,23.68
2023-09-08T07:54:42.148Z,23.85
2023-09-08T07:57:08.683Z,24.31
2023-09-08T07:59:37.711Z,23.68
2023-09-08T08:02:04.775Z,24.73
2023-09-08T08:04:31.366Z,24.07
2023-09-08T08:06:58.149Z,24.27
2023-09-08T08:09:24.688Z,24.86
2023-09-08T08:11:51.689Z,24.63
2023-09-08T08:14:18.269Z,25.09
2023-09-08T08:16:44.729Z,22.93
2023-09-08T08:19:11.222Z,24.58
2023-09-08T08:21:38.749Z,24.68
2023-09-08T08:24:06.228Z,26.68
2023-09-08T08:26:34.103Z,26.97
2023-09-08T08:29:00.835Z,26.67
2023-09-08T08:31:27.376Z,26.21
2023-09-08T08:33:53.942Z,25.51
2023-09-08T08:36:20.684Z,25.65
2023-09-08T08:38:47.281Z,26.47
2023-09-08T08:41:13.817Z,25.79
2023-09-08T08:43:41.379Z,27.36
2023-09-08T08:46:08.678Z,27.14
2023-09-08T08:48:37.039Z,27.66
2023-09-08T08:51:04.795Z,26.91
2023-09-08T08:53:32.300Z,27.49
2023-09-08T08:56:00.731Z,27.62
2023-09-08T08:58:29.359Z,28.41
2023-09-08T09:00:59.375Z,28.61
2023-09-08T09:03:29.150Z,28.00
2023-09-08T09:05:55.946Z,28.01
2023-09-08T09:08:24.911Z,28.54
2023-09-08T09:10:53.434Z,28.21
2023-09-08T09:13:20.171Z,28.89
2023-09-08T09:15:47.860Z,28.20
2023-09-08T09:18:14.758Z,28.39
2023-09-08T09:20:53.921Z,26.93
2023-09-08T09:23:38.823Z,28.87
2023-09-08T09:26:05.449Z,28.54
2023-09-08T09:28:34.906Z,29.30
2023-09-08T09:31:02.248Z,29.90
2023-09-08T09:33:29.250Z,28.89
2023-09-08T09:35:55.992Z,28.29
2023-09-08T09:38:23.397Z,28.93
2023-09-08T09:40:50.243Z,29.63
2023-09-08T09:43:18.489Z,29.89
2023-09-08T09:45:45.965Z,30.52
2023-09-08T09:48:13.320Z,28.87
2023-09-08T09:50:46.544Z,29.32
2023-09-08T09:53:17.759Z,29.12
2023-09-08T09:55:45.870Z,29.70
2023-09-08T09:58:12.734Z,29.47
2023-09-08T10:00:42.227Z,30.32
2023-09-08T10:03:09.635Z,29.49
2023-09-08T10:05:38.010Z,29.61
2023-09-08T10:08:05.188Z,29.60
2023-09-08T10:10:33.748Z,29.27
2023-09-08T10:13:04.414Z,28.23
2023-09-08T10:15:32.079Z,29.73
2023-09-08T10:18:00.102Z,29.37
2023-09-08T10:20:28.482Z,30.07
2023-09-08T10:23:29.612Z,30.18
2023-09-08T10:26:02.780Z,30.46
2023-09-08T10:28:32.821Z,30.41
2023-09-08T10:31:00.628Z,30.09
2023-09-08T10:33:27.985Z,30.15
2023-09-08T10:35:55.086Z,29.42
2023-09-08T10:38:29.911Z,29.93
2023-09-08T10:41:18.301Z,31.04
2023-09-08T10:43:56.282Z,29.73
2023-09-08T10:46:31.618Z,29.43
2023-09-08T10:49:08.590Z,29.27
2023-09-08T10:51:35.923Z,29.62
2023-09-08T10:54:03.288Z,30.08
2023-09-08T10:56:50.837Z,29.37
2023-09-08T10:59:17.873Z,28.84
2023-09-08T11:01:44.484Z,28.38
2023-09-08T11:04:14.347Z,29.86
2023-09-08T11:06:41.013Z,29.58
2023-09-08T11:09:09.166Z,29.51
2023-09-08T11:11:38.079Z,29.92
2023-09-08T11:14:05.010Z,30.13
2023-09-08T11:16:34.368Z,28.92
2023-09-08T11:19:02.487Z,29.47
2023-09-08T11:21:35.601Z,30.63
2023-09-08T11:24:05.567Z,31.49
2023-09-08T11:26:35.928Z,29.74
2023-09-08T11:29:02.640Z,31.81
2023-09-08T11:31:29.290Z,30.94
2023-09-08T11:33:56.620Z,30.60
2023-09-08T11:36:23.263Z,29.30
2023-09-08T11:38:50.440Z,30.44
2023-09-08T11:41:18.008Z,30.49
2023-09-08T11:43:44.717Z,30.20
2023-09-08T11:46:12.428Z,29.08
2023-09-08T11:48:39.443Z,30.82
2023-09-08T11:51:08.767Z,30.93
2023-09-08T11:53:36.147Z,29.59
2023-09-08T11:56:02.768Z,30.01
2023-09-08T11:58:30.602Z,29.05
2023-09-08T12:00:57.239Z,28.65
2023-09-08T12:03:23.842Z,29.93
2023-09-08T12:05:53.694Z,31.36
2023-09-08T12:08:20.616Z,29.19
2023-09-08T12:10:47.283Z,29.69
2023-09-08T12:13:15.757Z,30.72
2023-09-08T12:15:44.981Z,30.86
2023-09-08T12:18:13.893Z,31.71
2023-09-08T12:20:41.373Z,31.24
2023-09-08T12:23:19.383Z,30.68
2023-09-08T12:25:49.993Z,30.97
2023-09-08T12:28:17.860Z,32.06
2023-09-08T12:30:44.790Z,31.20
2023-09-08T12:33:12.170Z,31.82
2023-09-08T12:35:38.704Z,32.08
2023-09-08T12:38:06.706Z,30.51
2023-09-08T12:40:38.208Z,30.16
2023-09-08T12:43:06.660Z,30.32
2023-09-08T12:45:41.559Z,31.88
2023-09-08T12:48:08.579Z,31.48
2023-09-08T12:50:35.187Z,30.95
2023-09-08T12:53:01.726Z,30.41
2023-09-08T12:55:28.462Z,30.52
2023-09-08T12:57:56.167Z,30.46
2023-09-08T13:00:26.803Z,31.38
2023-09-08T13:02:53.554Z,32.46
2023-09-08T13:05:20.220Z,32.09
2023-09-08T13:07:46.798Z,31.92
2023-09-08T13:10:13.379Z,30.00
2023-09-08T13:12:41.322Z,30.45
2023-09-08T13:15:08.816Z,30.18
2023-09-08T13:17:35.396Z,31.54
2023-09-08T13:20:02.779Z,29.95
2023-09-08T13:22:29.306Z,29.97
2023-09-08T13:24:56.182Z,31.90
2023-09-08T13:27:22.754Z,32.64
2023-09-08T13:29:49.698Z,32.46
2023-09-08T13:32:16.756Z,31.61
2023-09-08T13:34:44.717Z,30.79
2023-09-08T13:37:11.474Z,31.28
2023-09-08T13:39:38.401Z,30.90
2023-09-08T13:42:05.076Z,29.50
2023-09-08T13:44:31.799Z,29.02
2023-09-08T13:46:58.511Z,29.74
2023-09-08T13:49:27.867Z,29.80
2023-09-08T13:51:57.361Z,27.99
2023-09-08T13:54:25.202Z,28.32
2023-09-08T13:57:07.164Z,28.60
2023-09-08T13:59:35.960Z,29.34
2023-09-08T14:02:28.897Z,29.49
2023-09-08T14:04:55.428Z,29.67
2023-09-08T14:07:27.041Z,30.28
2023-09-08T14:10:04.427Z,31.12
2023-09-08T14:12:35.241Z,30.81
2023-09-08T14:15:03.367Z,30.14
2023-09-08T14:17:30.002Z,28.53
2023-09-08T14:19:56.867Z,28.95
2023-09-08T14:22:23.495Z,29.01
2023-09-08T14:24:50.001Z,30.28
2023-09-08T14:27:16.514Z,31.65
2023-09-08T14:29:42.965Z,31.43
2023-09-08T14:32:09.509Z,31.40
2023-09-08T14:34:36.059Z,32.83
2023-09-08T14:37:04.773Z,32.83
2023-09-08T14:39:31.951Z,32.80
2023-09-08T14:41:58.520Z,32.79
2023-09-08T14:44:25.099Z,34.02
2023-09-08T14:46:52.893Z,34.54
2023-09-08T14:49:19.550Z,30.03
2023-09-08T14:51:46.095Z,33.89
2023-09-08T14:54:12.662Z,36.78
2023-09-08T14:56:39.157Z,37.17
2023-09-08T14:59:05.736Z,35.55
2023-09-08T15:01:32.512Z,35.30
2023-09-08T15:03:59.297Z,34.58
2023-09-08T15:06:28.235Z,35.20
2023-09-08T15:08:55.210Z,37.09
2023-09-08T15:11:21.769Z,36.55
2023-09-08T15:13:48.436Z,34.89
2023-09-08T15:16:15.969Z,35.15
2023-09-08T15:18:42.865Z,35.33
2023-09-08T15:21:09.795Z,36.03
2023-09-08T15:23:37.069Z,36.37
2023-09-08T15:26:04.531Z,34.44
2023-09-08T15:28:31.607Z,35.01
2023-09-08T15:30:58.502Z,35.18
2023-09-08T15:33:25.373Z,35.53
2023-09-08T15:35:53.412Z,34.68
2023-09-08T15:38:21.082Z,35.48
2023-09-08T15:41:09.738Z,37.21
2023-09-08T15:43:41.782Z,36.94
2023-09-08T15:46:09.121Z,35.48
2023-09-08T15:48:36.242Z,35.30
2023-09-08T15:51:02.767Z,34.93
2023-09-08T15:53:30.373Z,35.36
2023-09-08T15:55:57.392Z,34.49
2023-09-08T15:58:23.977Z,35.13
2023-09-08T16:00:50.623Z,35.03
2023-09-08T16:03:17.634Z,33.23
2023-09-08T16:05:44.335Z,33.11
2023-09-08T16:08:10.881Z,32.20
2023-09-08T16:10:37.371Z,31.89
2023-09-08T16:13:04.098Z,31.20
2023-09-08T16:15:30.601Z,30.34
2023-09-08T16:17:59.246Z,29.40
2023-09-08T16:20:25.835Z,28.71
2023-09-08T16:22:52.377Z,29.69
2023-09-08T16:25:18.879Z,28.48
2023-09-08T16:27:46.513Z,29.39
2023-09-08T16:30:13.612Z,28.61
2023-09-08T16:32:40.899Z,28.54
2023-09-08T16:35:07.924Z,27.67
2023-09-08T16:37:34.727Z,28.53
2023-09-08T16:40:01.279Z,29.56
2023-09-08T16:42:27.848Z,29.78
2023-09-08T16:44:54.431Z,29.26
2023-09-08T16:47:21.651Z,28.41
2023-09-08T16:49:48.263Z,28.40
2023-09-08T16:52:14.785Z,26.92
2023-09-08T16:54:41.287Z,28.89
2023-09-08T16:57:07.970Z,28.00
2023-09-08T16:59:34.572Z,28.55
2023-09-08T17:02:01.111Z,27.74
2023-09-08T17:04:28.427Z,28.04
2023-09-08T17:06:55.118Z,27.39
2023-09-08T17:09:21.624Z,26.94
2023-09-08T17:11:48.156Z,27.11
2023-09-08T17:14:14.748Z,26.91
2023-09-08T17:16:41.381Z,26.84
2023-09-08T17:19:08.133Z,26.69
2023-09-08T17:21:34.776Z,26.78
2023-09-08T17:24:01.317Z,25.67
2023-09-08T17:26:27.842Z,25.86
2023-09-08T17:28:54.551Z,26.18
2023-09-08T17:31:21.160Z,25.68
2023-09-08T17:33:47.961Z,26.06
2023-09-08T17:36:14.610Z,25.60
2023-09-08T17:38:43.073Z,24.98
2023-09-08T17:41:09.676Z,26.00
2023-09-08T17:43:36.529Z,25.86
2023-09-08T17:46:04.994Z,25.38
2023-09-08T17:48:31.918Z,24.38
2023-09-08T17:50:58.519Z,24.31
2023-09-08T17:53:25.094Z,24.74
2023-09-08T17:55:51.585Z,23.81
2023-09-08T17:58:18.169Z,24.62
2023-09-08T18:00:47.361Z,24.58
2023-09-08T18:03:16.244Z,24.37
2023-09-08T18:05:44.729Z,24.18
2023-09-08T18:08:13.120Z,24.20
2023-09-08T18:10:40.780Z,23.97
2023-09-08T18:13:08.161Z,24.28
2023-09-08T18:15:34.708Z,23.60
2023-09-08T18:18:02.054Z,23.87
2023-09-08T18:20:29.041Z,23.71
2023-09-08T18:22:55.864Z,22.90
2023-09-08T18:25:23.409Z,23.44
2023-09-08T18:27:50.030Z,23.27
2023-09-08T18:30:16.692Z,23.32
2023-09-08T18:32:44.693Z,22.76
2023-09-08T18:35:11.505Z,23.31
2023-09-08T18:37:38.116Z,22.85
2023-09-08T18:40:05.039Z,23.57
2023-09-08T18:42:31.542Z,23.47
2023-09-08T18:44:58.104Z,22.98
2023-09-08T18:47:24.698Z,23.02
2023-09-08T18:49:51.203Z,21.88
2023-09-08T18:52:17.710Z,23.15
2023-09-08T18:54:45.203Z,23.35
2023-09-08T18:57:11.742Z,23.44
2023-09-08T18:59:38.336Z,22.55
2023-09-08T19:02:05.891Z,23.20
2023-09-08T19:04:33.176Z,23.53
2023-09-08T19:06:59.815Z,22.70
2023-09-08T19:09:26.407Z,23.19
2023-09-08T19:11:52.978Z,23.08
2023-09-08T19:14:24.240Z,23.09
2023-09-08T19:16:52.919Z,22.87
2023-09-08T19:19:22.487Z,23.05
2023-09-08T19:21:49.261Z,23.10
2023-09-08T19:24:16.980Z,22.84
2023-09-08T19:26:43.574Z,22.92
2023-09-08T19:29:10.620Z,22.61
2023-09-08T19:31:37.840Z,22.33
2023-09-08T19:34:04.543Z,21.31
2023-09-08T19:36:31.163Z,22.95
2023-09-08T19:38:58.775Z,22.45
2023-09-08T19:41:27.411Z,22.51
2023-09-08T19:43:53.999Z,21.81
2023-09-08T19:46:20.641Z,22.28
2023-09-08T19:48:47.356Z,21.47
2023-09-08T19:51:15.706Z,20.51
2023-09-08T19:53:42.254Z,19.88
2023-09-08T19:56:08.918Z,21.24
2023-09-08T19:58:35.548Z,21.96
2023-09-08T20:01:06.324Z,22.01
2023-09-08T20:03:35.480Z,21.37
2023-09-08T20:06:03.299Z,21.56
2023-09-08T20:08:30.036Z,20.93
2023-09-08T20:10:56.857Z,22.02
2023-09-08T20:13:23.534Z,21.07
2023-09-08T20:16:00.988Z,21.29
2023-09-08T20:18:27.697Z,21.92
2023-09-08T20:21:02.805Z,20.84
2023-09-08T20:23:30.499Z,21.33
2023-09-08T20:25:57.053Z,22.20
2023-09-08T20:28:23.701Z,21.56
2023-09-08T20:31:09.555Z,21.79
2023-09-08T20:33:40.682Z,21.51
2023-09-08T20:36:07.316Z,21.89
2023-09-08T20:38:33.912Z,22.21
2023-09-08T20:41:00.856Z,22.07
2023-09-08T20:43:27.480Z,22.40
2023-09-08T20:46:06.404Z,21.61
2023-09-08T20:48:37.894Z,21.25
2023-09-08T20:51:07.309Z,21.60
2023-09-08T20:53:37.158Z,20.27
2023-09-08T20:56:04.849Z,20.59
2023-09-08T20:58:31.438Z,20.47
2023-09-08T21:00:59.712Z,20.80
2023-09-08T21:03:26.352Z,20.11
2023-09-08T21:05:52.957Z,21.91
2023-09-08T21:08:20.411Z,20.57
2023-09-08T21:10:50.226Z,21.33
2023-09-08T21:13:17.282Z,20.47
2023-09-08T21:15:43.992Z,21.72
2023-09-08T21:18:12.847Z,21.92
2023-09-08T21:20:39.412Z,21.94
2023-09-08T21:23:05.954Z,21.53
2023-09-08T21:25:34.055Z,20.93
2023-09-08T21:28:00.826Z,20.48
2023-09-08T21:30:27.600Z,20.46
2023-09-08T21:32:54.398Z,20.55
2023-09-08T21:35:21.045Z,20.84
2023-09-08T21:37:47.675Z,20.55
2023-09-08T21:40:14.579Z,19.55
2023-09-08T21:42:41.247Z,20.41
2023-09-08T21:45:08.463Z,20.67
2023-09-08T21:47:35.866Z,20.65
2023-09-08T21:50:02.496Z,20.95
2023-09-08T21:52:37.746Z,19.98
2023-09-08T21:55:05.809Z,20.12
2023-09-08T21:57:32.458Z,20.47
2023-09-08T21:59:59.039Z,20.56
2023-09-08T22:02:25.722Z,21.27
2023-09-08T22:04:52.573Z,20.59
2023-09-08T22:07:19.275Z,20.56
2023-09-08T22:09:45.964Z,20.93
2023-09-08T22:12:17.074Z,21.03
2023-09-08T22:14:43.744Z,19.51
2023-09-08T22:17:10.369Z,19.96
2023-09-08T22:19:37.007Z,20.16
2023-09-08T22:22:03.894Z,20.36
2023-09-08T22:24:30.556Z,20.53
2023-09-08T22:26:57.399Z,20.81
2023-09-08T22:29:24.172Z,20.16
2023-09-08T22:31:50.877Z,20.43
2023-09-08T22:34:17.523Z,20.32
2023-09-08T22:36:44.138Z,20.55
2023-09-08T22:39:12.758Z,18.92
2023-09-08T22:41:39.990Z,18.23
2023-09-08T22:44:06.677Z,20.03
2023-09-08T22:46:33.512Z,20.37
2023-09-08T22:49:00.097Z,20.69
2023-09-08T22:51:26.654Z,19.22
2023-09-08T22:53:53.343Z,20.75
2023-09-08T22:56:20.090Z,20.83
2023-09-08T22:58:46.778Z,20.00
2023-09-08T23:01:13.455Z,19.76
2023-09-08T23:03:40.407Z,21.00
2023-09-08T23:06:07.404Z,20.32
2023-09-08T23:08:33.936Z,19.18
2023-09-08T23:11:02.616Z,19.41
2023-09-08T23:13:29.249Z,19.50
2023-09-08T23:15:55.944Z,20.08
2023-09-08T23:18:22.516Z,19.76
2023-09-08T23:20:49.913Z,19.16
2023-09-08T23:23:16.726Z,20.61
2023-09-08T23:25:43.217Z,19.59
2023-09-08T23:28:09.898Z,19.88
2023-09-08T23:30:36.729Z,20.30
2023-09-08T23:33:03.840Z,18.70
2023-09-08T23:35:30.506Z,20.18
2023-09-08T23:37:57.128Z,18.64
2023-09-08T23:40:25.584Z,19.28
2023-09-08T23:42:52.089Z,19.08
2023-09-08T23:45:18.636Z,18.71
2023-09-08T23:47:45.241Z,18.89
2023-09-08T23:50:11.866Z,18.75
2023-09-08T23:52:38.533Z,18.81
2023-09-08T23:55:05.572Z,17.59
2023-09-08T23:57:32.118Z,18.62
2023-09-08T23:59:58.712Z,18.63
